Accueil
METAR-TAF:

METAR-TAF

Aéroports :

Guymon, Oklahoma, États-Unis

latitude: 36-40-54N, longitude: 101-30-19W, altitude: 952 m

Observation

Le bulletin a été fait il y a 41 minutes, à 12:53 UTC
Vent 5 kt de ouest/nord-ouest
Température 12°C
Humidité 82%
Pression 1014 hPa
Visibilité: 16.1 km
Ciel clair

METAR: KGUY 251253Z AUTO 30005KT 10SM CLR 12/09 A2993 RMK AO2 SLP099 T01220089

Heure: 08:34 (13:34 UTC)

Prévision

Le bulletin a été fait il y a 2 heures et 14 minutes, à 11:20 UTC
Prévision valable du 25 à 12 UTC au 26 à 12 UTC
Vent 7 kt de nord-ouest
Visibilité: 10 km
Ciel clair
A partir de 25 à 1500 UTC
Vent 26 kt de nord avec des rafales jusqu'à 36 kt
Visibilité: 10 km
Ciel clair
A partir de 25 à 2300 UTC
Vent 15 kt de nord/nord-est
Visibilité: 10 km
Ciel couvert à une hauteur de 20000 ft

TAF: KGUY 251120Z 2512/2612 31007KT P6SM SKC FM251500 36026G36KT P6SM SKC FM252300 03015KT P6SM OVC200

Observations et prévisions météorologiques de plus de 4000 aéroports (messages METAR et TAF).

Les stations disponibles sont représentées par des disques jaunes et rouges sur la carte.

Passer la souris dessus pour voir le nom de la station.

Cliquer dessus pour voir les observations et prévisions météorologiques.

Pour changer de carte: cliquez sur les boutons verts avec une croix noire pour zoomer, sur le bouton vert avec un tiret pour effectuer un zoom arrière, ou sur les flèches vertes pour les cartes adjacentes.


METAR-TAF: